createdAt,value
2023-01-29T00:29:57.970Z,0.29
2023-01-29T00:59:57.432Z,0.24
2023-01-29T01:29:57.694Z,0.22
2023-01-29T01:59:58.002Z,0.24
2023-01-29T02:29:57.380Z,0.15
2023-01-29T02:59:57.730Z,0.1
2023-01-29T03:29:57.478Z,0.11
2023-01-29T03:59:59.561Z,0.08
2023-01-29T04:59:57.607Z,0.07
2023-01-29T05:29:57.820Z,0.02
2023-01-29T05:59:57.377Z,0.04
2023-01-29T06:29:57.540Z,0.05
2023-01-29T06:59:57.033Z,0.03
2023-01-29T07:29:57.687Z,0.06
2023-01-29T07:59:57.232Z,0.08
2023-01-29T08:29:57.105Z,0.15
2023-01-29T08:59:57.172Z,0.32
2023-01-29T09:29:58.515Z,0.42
2023-01-29T10:00:00.591Z,0.62
2023-01-29T10:29:58.242Z,0.83
2023-01-29T10:59:57.325Z,1.33
2023-01-29T11:29:56.942Z,1.67
2023-01-29T12:29:57.139Z,1.84
2023-01-29T12:59:56.677Z,1.71
2023-01-29T13:29:57.627Z,1.72
2023-01-29T13:59:58.997Z,1.58
2023-01-29T14:29:57.402Z,1.76
2023-01-29T15:29:57.208Z,1.51
2023-01-29T15:59:57.074Z,1.38
2023-01-29T16:29:57.336Z,1.15
2023-01-29T16:59:57.037Z,0.83
2023-01-29T17:29:56.703Z,0.76
2023-01-29T18:59:56.386Z,0.48
2023-01-29T18:59:57.203Z,0.44
2023-01-29T19:59:57.776Z,0.25
2023-01-29T20:29:57.099Z,-0.22
2023-01-29T20:59:56.474Z,-0.64
2023-01-29T21:29:56.899Z,-1.03
2023-01-29T21:59:56.779Z,-1.37
2023-01-29T22:29:56.624Z,-1.61
2023-01-29T22:59:56.223Z,-1.83
2023-01-29T23:29:57.052Z,-1.74
2023-01-29T23:59:56.549Z,-2.04
